createdAt,value
2022-12-05T07:16:52.373Z,97931.22
2022-12-05T07:19:20.620Z,97936.91
2022-12-05T07:21:48.189Z,97926.94
2022-12-05T07:24:16.174Z,97930.94
2022-12-05T07:26:43.920Z,97933.09
2022-12-05T07:29:11.656Z,97933.94
2022-12-05T07:31:39.351Z,97930.66
2022-12-05T07:34:07.172Z,97919.50
2022-12-05T07:36:34.827Z,97932.88
2022-12-05T07:39:03.015Z,97928.28
2022-12-05T07:41:32.305Z,97929.88
2022-12-05T07:44:00.260Z,97941.38
2022-12-05T07:46:28.560Z,97938.72
2022-12-05T07:48:56.374Z,97950.22
2022-12-05T07:51:24.308Z,97941.34
2022-12-05T07:53:52.190Z,97948.88
2022-12-05T07:56:20.108Z,97955.91
2022-12-05T07:58:48.951Z,97950.28
2022-12-05T08:01:16.710Z,97949.78
2022-12-05T08:03:44.924Z,97956.03
2022-12-05T08:06:14.594Z,97968.94
2022-12-05T08:08:42.513Z,97965.94
2022-12-05T08:11:15.091Z,97954.38
2022-12-05T08:13:43.066Z,97959.81
2022-12-05T08:16:12.203Z,97968.84
2022-12-05T08:18:40.179Z,97968.25
2022-12-05T08:21:10.004Z,97968.53
2022-12-05T08:23:38.233Z,97972.53
2022-12-05T08:26:29.592Z,97970.28
2022-12-05T08:29:05.233Z,97976.63
2022-12-05T08:31:35.276Z,97976.16
2022-12-05T08:34:03.088Z,97974.38
2022-12-05T08:36:31.096Z,97971.25
2022-12-05T08:39:03.743Z,97980.13
2022-12-05T08:41:31.455Z,97984.44
2022-12-05T08:44:01.525Z,97987.72
2022-12-05T08:46:30.313Z,97978.38
2022-12-05T08:48:57.980Z,97982.28
2022-12-05T08:51:25.731Z,97971.47
2022-12-05T08:53:53.694Z,97962.63
2022-12-05T08:56:26.559Z,97960.31
2022-12-05T08:59:01.130Z,97944.44
2022-12-05T09:01:33.428Z,97926.41
2022-12-05T09:04:01.389Z,97917.72
2022-12-05T09:06:29.774Z,97914.97
2022-12-05T09:08:59.162Z,97904.94
2022-12-05T09:11:28.547Z,97899.66
2022-12-05T09:13:56.897Z,97894.63
2022-12-05T09:16:26.565Z,97898.19
2022-12-05T09:18:54.297Z,97890.44
2022-12-05T09:21:26.100Z,97893.38
2022-12-05T09:23:54.136Z,97895.75
2022-12-05T09:26:23.547Z,97895.84
2022-12-05T09:28:51.556Z,97904.22
2022-12-05T09:31:23.675Z,97913.22
2022-12-05T09:33:51.606Z,97919.31
2022-12-05T09:36:27.013Z,97923.16
2022-12-05T09:38:54.988Z,97926.19
2022-12-05T09:41:49.498Z,97940.94
2022-12-05T09:44:42.842Z,97941.84
2022-12-05T09:47:32.313Z,97930.66
2022-12-05T09:50:06.498Z,97920.78
2022-12-05T09:52:36.747Z,97922.03
2022-12-05T09:55:12.524Z,97916.88
2022-12-05T09:57:45.147Z,97915.03
2022-12-05T10:00:13.417Z,97910.78
2022-12-05T10:03:26.423Z,97911.41
2022-12-05T10:06:06.992Z,97901.47
2022-12-05T10:08:49.639Z,97894.50
2022-12-05T10:11:40.132Z,97899.19
2022-12-05T10:14:34.244Z,97899.28
2022-12-05T10:17:07.681Z,97898.88
2022-12-05T10:19:38.507Z,97894.69
2022-12-05T10:22:40.873Z,97894.47
2022-12-05T10:25:09.725Z,97887.72
2022-12-05T10:27:40.520Z,97891.63
2022-12-05T10:30:18.530Z,97874.63
2022-12-05T10:32:56.930Z,97864.53
2022-12-05T10:35:33.313Z,97863.25
2022-12-05T10:38:14.103Z,97866.59
2022-12-05T10:40:46.236Z,97861.88
2022-12-05T10:43:15.541Z,97858.13
2022-12-05T10:45:44.577Z,97859.94
2022-12-05T10:48:13.194Z,97852.06
2022-12-05T10:50:42.464Z,97855.59
2022-12-05T10:53:15.712Z,97858.31
2022-12-05T10:56:06.458Z,97852.00
2022-12-05T10:58:32.744Z,97845.75
2022-12-05T11:01:10.453Z,97855.16
2022-12-05T11:03:39.753Z,97848.81
2022-12-05T11:06:27.196Z,97841.63
2022-12-05T11:09:17.081Z,97833.66
2022-12-05T11:11:46.034Z,97841.75
2022-12-05T11:14:24.684Z,97833.59
2022-12-05T11:16:59.515Z,97828.34
2022-12-05T11:19:39.283Z,97827.03
2022-12-05T11:22:10.137Z,97815.66
2022-12-05T11:24:38.710Z,97811.31
2022-12-05T11:27:27.665Z,97799.72
2022-12-05T11:30:27.494Z,97800.09
2022-12-05T11:33:23.859Z,97796.47
2022-12-05T11:35:57.430Z,97794.38
2022-12-05T11:38:27.601Z,97790.38
2022-12-05T11:41:14.497Z,97788.41
2022-12-05T11:43:49.725Z,97796.53
2022-12-05T11:46:26.572Z,97788.16
2022-12-05T11:49:20.352Z,97783.75
2022-12-05T11:52:15.687Z,97782.09
2022-12-05T11:55:04.839Z,97774.09
2022-12-05T11:57:58.398Z,97786.72
2022-12-05T12:01:21.535Z,97766.16
2022-12-05T12:04:28.748Z,97765.88
2022-12-05T12:07:18.181Z,97758.78
2022-12-05T12:10:10.195Z,97758.59
2022-12-05T12:12:40.924Z,97750.47
2022-12-05T12:15:39.144Z,97757.72
2022-12-05T12:18:35.250Z,97744.03
2022-12-05T12:21:19.176Z,97749.66
2022-12-05T12:24:06.809Z,97757.91
2022-12-05T12:26:54.042Z,97733.81
2022-12-05T12:29:46.312Z,97739.31
2022-12-05T12:32:20.753Z,97731.59
2022-12-05T12:35:08.180Z,97726.44
2022-12-05T12:37:50.760Z,97723.19
2022-12-05T12:40:54.584Z,97720.19
2022-12-05T12:43:55.158Z,97725.16
2022-12-05T12:46:25.763Z,97727.25
2022-12-05T12:49:38.647Z,97725.44
2022-12-05T12:52:16.153Z,97721.03
2022-12-05T12:55:05.623Z,97723.28
2022-12-05T12:58:01.160Z,97722.09
2022-12-05T13:00:43.621Z,97718.72
2022-12-05T13:03:13.040Z,97712.50
2022-12-05T13:05:46.843Z,97715.19
2022-12-05T13:08:23.424Z,97708.38
2022-12-05T13:10:51.424Z,97705.03
2022-12-05T13:13:24.315Z,97709.22
2022-12-05T13:15:56.367Z,97710.69
2022-12-05T13:18:25.097Z,97704.66
2022-12-05T13:20:54.517Z,97703.50
2022-12-05T13:23:33.174Z,97697.88
2022-12-05T13:26:01.074Z,97700.81
2022-12-05T13:28:42.499Z,97697.97
2022-12-05T13:31:10.198Z,97697.25
2022-12-05T13:33:47.932Z,97702.31
2022-12-05T13:36:38.263Z,97695.09
2022-12-05T13:39:34.334Z,97710.75
2022-12-05T13:42:17.263Z,97706.56
2022-12-05T13:44:53.682Z,97704.94
2022-12-05T13:47:38.185Z,97702.06
2022-12-05T13:50:35.707Z,97700.41
2022-12-05T13:53:22.725Z,97698.50
2022-12-05T13:56:06.730Z,97702.41
2022-12-05T13:58:54.450Z,97698.41
2022-12-05T14:01:25.279Z,97703.13
2022-12-05T14:04:00.513Z,97699.38
2022-12-05T14:06:40.107Z,97700.56
2022-12-05T14:09:20.307Z,97695.28
2022-12-05T14:12:13.056Z,97697.97
2022-12-05T14:14:56.006Z,97695.16
2022-12-05T14:17:33.591Z,97698.09
2022-12-05T14:20:25.601Z,97707.34
2022-12-05T14:22:59.809Z,97710.22
2022-12-05T14:25:33.634Z,97705.28
2022-12-05T14:28:24.571Z,97696.53
2022-12-05T14:31:26.012Z,97692.31
2022-12-05T14:34:18.207Z,97699.06
2022-12-05T14:36:59.347Z,97701.38
2022-12-05T14:39:42.392Z,97693.72
2022-12-05T14:42:37.734Z,97692.41
2022-12-05T14:45:39.709Z,97688.63
2022-12-05T14:48:13.446Z,97699.63
2022-12-05T14:50:51.351Z,97692.13
2022-12-05T14:53:22.166Z,97688.06
2022-12-05T14:55:50.673Z,97696.13
2022-12-05T14:59:10.742Z,97682.59
2022-12-05T15:01:38.472Z,97675.19
2022-12-05T15:04:23.872Z,97673.06
2022-12-05T15:07:18.353Z,97673.94
2022-12-05T15:10:01.393Z,97672.53
2022-12-05T15:12:32.293Z,97672.53
2022-12-05T15:15:04.764Z,97673.03
2022-12-05T15:18:14.589Z,97669.97
2022-12-05T15:20:54.457Z,97672.59
2022-12-05T15:23:56.106Z,97667.38
2022-12-05T15:26:48.001Z,97664.59
2022-12-05T15:29:19.705Z,97669.72
2022-12-05T15:31:49.537Z,97673.69
2022-12-05T15:34:55.236Z,97670.41
2022-12-05T15:37:36.381Z,97665.03
2022-12-05T15:40:37.475Z,97676.16
2022-12-05T15:43:31.256Z,97668.81
2022-12-05T15:46:24.753Z,97672.41
2022-12-05T15:48:53.506Z,97666.38
2022-12-05T15:51:36.005Z,97662.91
2022-12-05T15:54:31.821Z,97667.84
2022-12-05T15:57:06.765Z,97669.81
2022-12-05T15:59:40.597Z,97667.03
2022-12-05T16:02:22.114Z,97662.63
2022-12-05T16:04:50.859Z,97659.16
2022-12-05T16:07:18.492Z,97659.81
2022-12-05T16:09:46.532Z,97667.78
2022-12-05T16:12:23.425Z,97661.25
2022-12-05T16:15:01.187Z,97666.09
2022-12-05T16:17:38.249Z,97670.84
2022-12-05T16:20:25.429Z,97673.66
2022-12-05T16:22:54.699Z,97675.56
2022-12-05T16:25:29.977Z,97679.75
2022-12-05T16:28:02.936Z,97671.22
2022-12-05T16:30:31.222Z,97681.41
2022-12-05T16:33:07.028Z,97686.22
2022-12-05T16:35:38.613Z,97684.63
